Time;durP1;ratioP1;P1;durP2;ratioP2;P2;SDS_P1;SDS_P2;PMS_P1;PMS_P2;Temp;Humidity;BMP_temperature;BMP_pressure;BME280_temperature;BME280_humidity;BME280_pressure;Samples;Min_cycle;Max_cycle;Signal;HPM_P1;HPM_P2
2021/08/01 00:01:22;;;;;;;5.93;3.72;;;;;;;;;;4941910;29;20027;-69
2021/08/01 00:03:48;;;;;;;7.40;3.45;;;;;;;;;;4938060;29;20024;-69
2021/08/01 00:06:14;;;;;;;5.55;3.85;;;;;;;;;;4938912;29;20098;-69
2021/08/01 00:08:40;;;;;;;6.00;3.70;;;;;;;;;;4938895;29;20038;-68
2021/08/01 00:11:07;;;;;;;6.15;3.20;;;;;;;;;;4936666;29;20455;-68
2021/08/01 00:13:33;;;;;;;5.43;3.50;;;;;;;;;;4942020;29;20034;-69
2021/08/01 00:16:00;;;;;;;6.05;3.97;;;;;;;;;;4949704;29;20035;-69
2021/08/01 00:18:26;;;;;;;8.95;3.67;;;;;;;;;;4938315;29;20028;-69
2021/08/01 00:20:52;;;;;;;6.07;3.95;;;;;;;;;;4937768;29;20039;-67
2021/08/01 00:23:21;;;;;;;7.40;3.88;;;;;;;;;;4939228;29;20031;-69
2021/08/01 00:25:47;;;;;;;4.90;3.45;;;;;;;;;;4939089;29;20031;-68
2021/08/01 00:28:13;;;;;;;8.85;3.70;;;;;;;;;;4939942;29;20044;-68
2021/08/01 00:30:39;;;;;;;5.25;3.35;;;;;;;;;;4946647;29;20039;-67
2021/08/01 00:33:05;;;;;;;5.72;3.42;;;;;;;;;;4941576;29;20107;-67
2021/08/01 00:35:31;;;;;;;5.40;3.65;;;;;;;;;;4943076;29;20028;-69
2021/08/01 00:37:57;;;;;;;5.35;3.70;;;;;;;;;;4937615;29;20031;-68
2021/08/01 00:40:23;;;;;;;8.00;3.65;;;;;;;;;;4942343;29;20028;-68
2021/08/01 00:42:52;;;;;;;9.23;3.55;;;;;;;;;;4937469;29;20031;-68
2021/08/01 00:45:19;;;;;;;4.63;3.50;;;;;;;;;;4941945;29;20067;-68
2021/08/01 00:47:45;;;;;;;4.95;3.42;;;;;;;;;;4947883;29;20386;-69
2021/08/01 00:50:13;;;;;;;6.45;4.03;;;;;;;;;;4940065;29;20047;-68
2021/08/01 00:52:39;;;;;;;8.50;3.78;;;;;;;;;;4937210;29;20042;-69
2021/08/01 00:55:09;;;;;;;4.63;3.50;;;;;;;;;;4939912;29;20038;-71
2021/08/01 00:57:36;;;;;;;5.22;3.47;;;;;;;;;;4952096;29;20107;-66
2021/08/01 01:00:03;;;;;;;4.78;3.67;;;;;;;;;;4937551;29;20024;-68
2021/08/01 01:02:37;;;;;;;6.22;3.70;;;;;;;;;;4953386;29;20118;-69
2021/08/01 01:05:12;;;;;;;5.90;3.67;;;;;;;;;;4954410;29;20401;-69
2021/08/01 01:07:41;;;;;;;7.07;3.83;;;;;;;;;;4943704;29;20727;-68
2021/08/01 01:10:29;;;;;;;6.70;3.80;;;;;;;;;;4938162;29;20051;-70
2021/08/01 01:13:10;;;;;;;5.10;3.55;;;;;;;;;;4940576;29;20031;-71
2021/08/01 01:15:38;;;;;;;4.90;3.88;;;;;;;;;;4944420;29;20031;-69
2021/08/01 01:18:04;;;;;;;6.93;4.07;;;;;;;;;;4939950;29;20110;-70
2021/08/01 01:20:33;;;;;;;6.32;4.05;;;;;;;;;;4952195;29;20031;-69
2021/08/01 01:22:59;;;;;;;5.38;3.97;;;;;;;;;;4939265;29;20075;-69
2021/08/01 01:25:28;;;;;;;6.45;4.20;;;;;;;;;;4941119;29;20047;-69
2021/08/01 01:28:02;;;;;;;7.82;3.83;;;;;;;;;;4936728;29;20095;-68
2021/08/01 01:30:30;;;;;;;5.90;3.92;;;;;;;;;;4948741;29;20023;-68
2021/08/01 01:33:01;;;;;;;5.75;3.92;;;;;;;;;;4948675;29;20380;-69
2021/08/01 01:35:35;;;;;;;6.55;3.95;;;;;;;;;;4938059;29;20030;-66
2021/08/01 01:38:02;;;;;;;6.25;3.70;;;;;;;;;;4940520;29;20028;-69
2021/08/01 01:40:28;;;;;;;8.63;4.20;;;;;;;;;;4935171;29;20438;-69
2021/08/01 01:42:55;;;;;;;6.88;4.20;;;;;;;;;;4950438;29;20027;-69
2021/08/01 01:45:22;;;;;;;5.85;4.20;;;;;;;;;;4940813;29;20039;-69
2021/08/01 01:47:52;;;;;;;6.53;4.22;;;;;;;;;;4936149;29;20044;-68
2021/08/01 01:50:21;;;;;;;5.47;4.00;;;;;;;;;;4943043;29;20401;-68
2021/08/01 01:52:51;;;;;;;6.53;4.63;;;;;;;;;;4937138;29;20118;-68
2021/08/01 01:55:17;;;;;;;8.35;4.10;;;;;;;;;;4938193;29;20031;-69
2021/08/01 01:57:44;;;;;;;8.55;4.70;;;;;;;;;;4938174;29;20035;-70
2021/08/01 02:00:10;;;;;;;6.75;4.65;;;;;;;;;;4938013;29;20034;-68
2021/08/01 02:02:36;;;;;;;8.75;4.70;;;;;;;;;;4940800;29;20023;-67
2021/08/01 02:05:03;;;;;;;7.22;4.40;;;;;;;;;;4939090;29;20027;-68
2021/08/01 02:07:33;;;;;;;5.47;4.63;;;;;;;;;;4945921;29;20039;-66
2021/08/01 02:10:34;;;;;;;8.57;4.47;;;;;;;;;;4937160;29;20031;-68
2021/08/01 02:13:01;;;;;;;6.25;4.50;;;;;;;;;;4873197;29;20034;-69
2021/08/01 02:15:43;;;;;;;6.28;4.30;;;;;;;;;;4874833;29;20060;-69
2021/08/01 02:18:10;;;;;;;5.97;4.07;;;;;;;;;;4876657;29;20399;-68
2021/08/01 02:20:40;;;;;;;7.15;4.50;;;;;;;;;;4876414;29;20048;-67
2021/08/01 02:23:07;;;;;;;8.77;4.57;;;;;;;;;;4876992;29;20048;-69
2021/08/01 02:25:33;;;;;;;6.07;4.30;;;;;;;;;;4874762;29;20029;-68
2021/08/01 02:28:00;;;;;;;10.65;4.53;;;;;;;;;;4878543;29;20135;-67
2021/08/01 02:30:27;;;;;;;6.80;4.28;;;;;;;;;;4876734;29;20036;-68
2021/08/01 02:32:53;;;;;;;8.65;4.10;;;;;;;;;;4876806;29;20113;-69
2021/08/01 02:35:19;;;;;;;6.03;4.07;;;;;;;;;;4873850;29;20033;-68
2021/08/01 02:37:46;;;;;;;5.75;4.07;;;;;;;;;;4873794;29;20515;-67
2021/08/01 02:40:12;;;;;;;4.50;3.92;;;;;;;;;;4876423;29;20133;-68
2021/08/01 02:42:40;;;;;;;5.43;4.05;;;;;;;;;;4876652;29;20108;-68
2021/08/01 02:45:06;;;;;;;5.72;4.00;;;;;;;;;;4869374;29;20025;-67
2021/08/01 02:47:32;;;;;;;10.50;4.80;;;;;;;;;;4925179;29;20102;-68
2021/08/01 02:49:59;;;;;;;4.80;4.13;;;;;;;;;;4947177;29;20613;-69
2021/08/01 02:52:29;;;;;;;7.43;4.57;;;;;;;;;;4937345;29;20024;-68
2021/08/01 02:54:56;;;;;;;5.93;4.30;;;;;;;;;;4941388;29;20034;-67
2021/08/01 02:57:23;;;;;;;6.38;4.13;;;;;;;;;;4937012;29;20422;-69
2021/08/01 02:59:50;;;;;;;6.10;4.40;;;;;;;;;;4948336;29;20050;-69
2021/08/01 03:02:16;;;;;;;6.20;4.15;;;;;;;;;;4942601;29;20545;-70
2021/08/01 03:04:43;;;;;;;6.05;4.15;;;;;;;;;;4936190;29;20027;-67
2021/08/01 03:07:12;;;;;;;6.18;4.32;;;;;;;;;;4940031;29;20110;-68
2021/08/01 03:09:39;;;;;;;6.85;4.38;;;;;;;;;;4945025;29;20452;-69
2021/08/01 03:12:11;;;;;;;6.93;3.90;;;;;;;;;;4935130;29;20435;-69
2021/08/01 03:14:38;;;;;;;6.05;4.97;;;;;;;;;;4945117;29;20039;-68
2021/08/01 03:17:04;;;;;;;7.95;3.95;;;;;;;;;;4940355;29;20042;-69
2021/08/01 03:19:30;;;;;;;5.18;4.13;;;;;;;;;;4945670;29;20031;-69
2021/08/01 03:21:56;;;;;;;5.57;4.53;;;;;;;;;;4934643;29;20032;-68
2021/08/01 03:24:25;;;;;;;5.47;4.20;;;;;;;;;;4938699;29;20031;-69
2021/08/01 03:26:51;;;;;;;5.30;4.22;;;;;;;;;;4942839;29;20202;-69
2021/08/01 03:29:17;;;;;;;7.05;4.70;;;;;;;;;;4943677;29;20024;-69
2021/08/01 03:31:43;;;;;;;6.28;4.38;;;;;;;;;;4941289;29;20039;-69
2021/08/01 03:34:09;;;;;;;6.57;4.35;;;;;;;;;;4944451;29;20401;-67
2021/08/01 03:36:35;;;;;;;5.32;4.07;;;;;;;;;;4947765;29;20027;-70
2021/08/01 03:39:02;;;;;;;5.85;4.10;;;;;;;;;;4938764;29;20027;-70
2021/08/01 03:41:31;;;;;;;6.00;4.38;;;;;;;;;;4950818;29;20031;-69
2021/08/01 03:43:57;;;;;;;6.75;3.92;;;;;;;;;;4939123;29;20036;-69
2021/08/01 03:46:23;;;;;;;6.32;4.25;;;;;;;;;;4940418;29;20110;-68
2021/08/01 03:48:49;;;;;;;7.32;4.13;;;;;;;;;;4946966;29;20032;-69
2021/08/01 03:51:15;;;;;;;6.95;4.25;;;;;;;;;;4948619;29;20174;-69
2021/08/01 03:53:41;;;;;;;4.90;3.97;;;;;;;;;;4938149;29;20110;-68
2021/08/01 03:56:07;;;;;;;6.20;4.25;;;;;;;;;;4944697;29;20045;-69
2021/08/01 03:58:33;;;;;;;7.78;4.20;;;;;;;;;;4947922;29;20060;-67
2021/08/01 04:00:59;;;;;;;5.55;4.18;;;;;;;;;;4944597;29;20090;-69
2021/08/01 04:03:25;;;;;;;4.95;4.10;;;;;;;;;;4945792;29;20122;-69
2021/08/01 04:05:51;;;;;;;6.47;3.83;;;;;;;;;;4943811;29;20032;-69
2021/08/01 04:08:17;;;;;;;6.78;4.25;;;;;;;;;;4937464;29;20036;-68
2021/08/01 04:10:43;;;;;;;9.88;4.70;;;;;;;;;;4938068;29;20038;-68
2021/08/01 04:13:09;;;;;;;7.68;4.53;;;;;;;;;;4941649;29;20031;-67
2021/08/01 04:15:36;;;;;;;6.35;4.50;;;;;;;;;;4942703;29;20039;-69
2021/08/01 04:18:03;;;;;;;7.93;4.43;;;;;;;;;;4949139;29;20110;-69
2021/08/01 04:20:29;;;;;;;8.38;4.20;;;;;;;;;;4927089;29;20497;-69
2021/08/01 04:22:55;;;;;;;5.97;3.92;;;;;;;;;;4942285;29;20027;-67
2021/08/01 04:25:22;;;;;;;6.15;4.05;;;;;;;;;;4944593;29;20035;-69
2021/08/01 04:27:48;;;;;;;8.15;4.15;;;;;;;;;;4945265;29;20039;-69
2021/08/01 04:30:14;;;;;;;9.88;4.38;;;;;;;;;;4943169;29;20023;-69
2021/08/01 04:32:40;;;;;;;7.07;4.00;;;;;;;;;;4948010;29;20031;-67
2021/08/01 04:35:07;;;;;;;5.28;4.22;;;;;;;;;;4943837;29;20091;-69
2021/08/01 04:37:33;;;;;;;7.35;4.20;;;;;;;;;;4946711;29;20020;-67
2021/08/01 04:39:59;;;;;;;5.28;3.85;;;;;;;;;;4945496;29;20023;-68
2021/08/01 04:42:25;;;;;;;5.95;3.78;;;;;;;;;;4949894;29;20026;-67
2021/08/01 04:44:51;;;;;;;5.85;4.05;;;;;;;;;;4944665;29;20023;-69
2021/08/01 04:47:17;;;;;;;6.10;3.55;;;;;;;;;;4950509;29;20043;-67
2021/08/01 04:49:44;;;;;;;5.35;4.10;;;;;;;;;;4944144;29;20050;-69
2021/08/01 04:52:17;;;;;;;5.05;3.85;;;;;;;;;;4950700;29;20040;-67
2021/08/01 04:54:43;;;;;;;5.45;3.78;;;;;;;;;;4951420;29;20553;-70
2021/08/01 04:57:09;;;;;;;4.88;3.97;;;;;;;;;;4949740;29;20098;-68
2021/08/01 04:59:35;;;;;;;6.45;4.15;;;;;;;;;;4948221;29;20111;-68
2021/08/01 05:02:01;;;;;;;8.00;4.30;;;;;;;;;;4944918;29;20027;-67
2021/08/01 05:04:28;;;;;;;8.50;4.18;;;;;;;;;;4938633;29;20086;-68
2021/08/01 05:06:54;;;;;;;6.38;3.60;;;;;;;;;;4953978;29;20134;-68
2021/08/01 05:09:20;;;;;;;4.57;3.58;;;;;;;;;;4941965;29;20023;-67
2021/08/01 05:11:46;;;;;;;6.85;4.10;;;;;;;;;;4941111;29;20038;-67
2021/08/01 05:14:12;;;;;;;10.07;4.00;;;;;;;;;;4942696;29;20076;-68
2021/08/01 05:16:38;;;;;;;5.47;4.15;;;;;;;;;;4939343;29;20032;-66
2021/08/01 05:19:04;;;;;;;10.93;4.32;;;;;;;;;;4936492;29;20107;-70
2021/08/01 05:21:31;;;;;;;6.03;4.03;;;;;;;;;;4937981;29;20065;-70
2021/08/01 05:23:57;;;;;;;7.28;4.38;;;;;;;;;;4941696;29;20042;-69
2021/08/01 05:26:23;;;;;;;9.82;4.32;;;;;;;;;;4940689;29;20031;-68
2021/08/01 05:28:49;;;;;;;12.65;4.80;;;;;;;;;;4940140;29;20464;-69
2021/08/01 05:31:15;;;;;;;7.47;4.78;;;;;;;;;;4940945;29;20038;-76
2021/08/01 05:33:41;;;;;;;12.57;4.70;;;;;;;;;;4940956;29;20050;-70
2021/08/01 05:36:08;;;;;;;13.50;4.63;;;;;;;;;;4942066;28;20051;-68
2021/08/01 05:38:35;;;;;;;14.45;4.80;;;;;;;;;;4950444;29;20028;-69
2021/08/01 05:41:01;;;;;;;20.08;5.30;;;;;;;;;;4939782;29;20118;-65
2021/08/01 05:43:27;;;;;;;15.10;4.63;;;;;;;;;;4950596;29;20024;-67
2021/08/01 05:45:53;;;;;;;16.65;4.45;;;;;;;;;;4939703;28;20493;-67
2021/08/01 05:48:19;;;;;;;15.45;4.60;;;;;;;;;;4944410;29;20433;-67
2021/08/01 05:50:45;;;;;;;6.35;4.03;;;;;;;;;;4941919;29;20090;-63
2021/08/01 05:53:11;;;;;;;11.60;4.50;;;;;;;;;;4948207;29;20043;-69
2021/08/01 05:55:37;;;;;;;10.35;4.28;;;;;;;;;;4936221;29;20035;-71
2021/08/01 05:58:03;;;;;;;13.48;4.78;;;;;;;;;;4941096;29;20161;-62
2021/08/01 06:00:29;;;;;;;9.95;4.22;;;;;;;;;;4941361;29;20059;-67
2021/08/01 06:02:55;;;;;;;24.52;5.07;;;;;;;;;;4939415;29;20057;-65
2021/08/01 06:05:21;;;;;;;10.23;4.82;;;;;;;;;;4937867;29;20096;-69
2021/08/01 06:07:47;;;;;;;10.95;4.63;;;;;;;;;;4939076;29;20110;-68
2021/08/01 06:10:14;;;;;;;6.65;4.45;;;;;;;;;;4936123;29;20023;-68
2021/08/01 06:12:40;;;;;;;13.88;4.93;;;;;;;;;;4951167;29;20027;-64
2021/08/01 06:15:06;;;;;;;8.25;4.50;;;;;;;;;;4939057;29;20028;-65
2021/08/01 06:17:32;;;;;;;6.03;4.72;;;;;;;;;;4938472;29;20079;-63
2021/08/01 06:19:58;;;;;;;6.82;4.70;;;;;;;;;;4944162;29;20028;-68
2021/08/01 06:22:25;;;;;;;6.45;4.95;;;;;;;;;;4942568;29;20058;-64
2021/08/01 06:24:51;;;;;;;7.13;4.80;;;;;;;;;;4941923;29;20032;-69
2021/08/01 06:27:17;;;;;;;9.25;4.50;;;;;;;;;;4937019;29;20035;-69
2021/08/01 06:29:44;;;;;;;10.48;4.80;;;;;;;;;;4938712;29;20111;-68
2021/08/01 06:32:10;;;;;;;10.32;4.95;;;;;;;;;;4947757;29;20126;-66
2021/08/01 06:34:36;;;;;;;7.47;4.78;;;;;;;;;;4938254;29;20026;-66
2021/08/01 06:37:02;;;;;;;11.77;4.95;;;;;;;;;;4938271;29;20027;-65
2021/08/01 06:39:28;;;;;;;13.52;5.72;;;;;;;;;;4936840;29;20062;-66
2021/08/01 06:41:54;;;;;;;9.75;4.72;;;;;;;;;;4938229;29;20038;-68
2021/08/01 06:44:20;;;;;;;10.25;4.53;;;;;;;;;;4942640;29;20091;-67
2021/08/01 06:46:46;;;;;;;9.73;5.20;;;;;;;;;;4937722;29;20024;-67
2021/08/01 06:49:13;;;;;;;11.05;5.20;;;;;;;;;;4935464;29;20106;-68
2021/08/01 06:51:39;;;;;;;13.68;5.20;;;;;;;;;;4937098;29;20047;-69
2021/08/01 06:54:05;;;;;;;7.55;4.55;;;;;;;;;;4937006;29;20059;-70
2021/08/01 06:56:31;;;;;;;8.38;4.90;;;;;;;;;;4936257;29;20058;-70
2021/08/01 06:58:57;;;;;;;49.13;6.90;;;;;;;;;;4942621;29;20032;-69
2021/08/01 07:01:23;;;;;;;12.48;5.05;;;;;;;;;;4934924;29;20451;-69
2021/08/01 07:03:49;;;;;;;10.68;5.00;;;;;;;;;;4943822;29;20027;-68
2021/08/01 07:06:16;;;;;;;13.20;5.47;;;;;;;;;;4938343;29;20477;-69
2021/08/01 07:08:42;;;;;;;10.90;4.97;;;;;;;;;;4942211;29;20035;-71
2021/08/01 07:11:08;;;;;;;8.05;5.15;;;;;;;;;;4936830;29;20027;-76
2021/08/01 07:13:35;;;;;;;12.63;5.25;;;;;;;;;;4945530;29;20026;-73
2021/08/01 07:16:02;;;;;;;9.27;5.13;;;;;;;;;;4937448;29;20047;-71
2021/08/01 07:18:29;;;;;;;6.70;4.70;;;;;;;;;;4940542;29;20020;-74
2021/08/01 07:20:55;;;;;;;8.95;5.60;;;;;;;;;;4940079;29;20119;-79
2021/08/01 07:23:21;;;;;;;11.02;5.00;;;;;;;;;;4936886;29;20032;-70
2021/08/01 07:25:47;;;;;;;9.02;4.75;;;;;;;;;;4937122;29;20065;-78
2021/08/01 07:28:13;;;;;;;9.68;4.80;;;;;;;;;;4939331;29;20043;-71
2021/08/01 07:30:39;;;;;;;10.38;4.78;;;;;;;;;;4936047;29;20034;-69
2021/08/01 07:33:05;;;;;;;7.43;5.07;;;;;;;;;;4941847;29;20051;-69
2021/08/01 07:35:31;;;;;;;9.73;5.53;;;;;;;;;;4942137;29;20023;-67
2021/08/01 07:37:57;;;;;;;8.05;5.22;;;;;;;;;;4939543;29;20040;-67
2021/08/01 07:40:23;;;;;;;6.13;4.72;;;;;;;;;;4938042;29;20035;-68
2021/08/01 07:42:49;;;;;;;9.52;5.05;;;;;;;;;;4938833;29;20127;-69
2021/08/01 07:45:23;;;;;;;25.95;5.50;;;;;;;;;;4938598;29;20031;-68
2021/08/01 07:47:49;;;;;;;14.07;6.13;;;;;;;;;;4935500;29;20126;-71
2021/08/01 07:50:15;;;;;;;9.27;5.38;;;;;;;;;;4932956;29;20047;-68
2021/08/01 07:52:41;;;;;;;8.85;5.47;;;;;;;;;;4935170;29;20035;-68
2021/08/01 07:55:08;;;;;;;8.68;5.50;;;;;;;;;;4943046;29;20388;-69
2021/08/01 07:57:35;;;;;;;6.95;5.10;;;;;;;;;;4936626;29;20070;-76
2021/08/01 08:00:04;;;;;;;15.13;5.30;;;;;;;;;;4936813;29;20020;-69
2021/08/01 08:02:30;;;;;;;8.15;5.07;;;;;;;;;;4946942;29;20031;-70
2021/08/01 08:04:56;;;;;;;11.77;5.65;;;;;;;;;;4940632;29;20027;-69
2021/08/01 08:07:22;;;;;;;6.78;4.75;;;;;;;;;;4938655;29;20087;-73
2021/08/01 08:09:49;;;;;;;10.40;5.20;;;;;;;;;;4940760;29;20585;-69
2021/08/01 08:12:15;;;;;;;6.35;5.22;;;;;;;;;;4945388;29;20470;-65
2021/08/01 08:14:42;;;;;;;7.68;5.22;;;;;;;;;;4946494;29;20046;-70
2021/08/01 08:17:08;;;;;;;9.45;5.15;;;;;;;;;;4944419;29;20031;-65
2021/08/01 08:19:34;;;;;;;12.48;5.45;;;;;;;;;;4945858;29;20028;-68
2021/08/01 08:22:00;;;;;;;10.80;5.97;;;;;;;;;;4939870;29;20094;-72
2021/08/01 08:24:27;;;;;;;9.25;5.03;;;;;;;;;;4944643;29;20031;-74
2021/08/01 08:26:53;;;;;;;8.75;5.45;;;;;;;;;;4944140;29;20039;-71
2021/08/01 08:29:23;;;;;;;12.80;5.32;;;;;;;;;;4944682;29;20039;-69
2021/08/01 08:31:50;;;;;;;7.78;5.47;;;;;;;;;;4940290;29;20043;-73
2021/08/01 08:34:17;;;;;;;10.23;5.10;;;;;;;;;;4946276;29;20156;-74
2021/08/01 08:36:50;;;;;;;9.88;5.25;;;;;;;;;;4939194;29;20568;-74
2021/08/01 08:39:20;;;;;;;9.13;5.20;;;;;;;;;;4938411;29;20032;-78
2021/08/01 08:41:49;;;;;;;11.38;5.55;;;;;;;;;;4936847;29;20027;-73
2021/08/01 08:44:15;;;;;;;8.20;5.22;;;;;;;;;;4938059;29;20043;-70
2021/08/01 08:46:42;;;;;;;12.18;5.53;;;;;;;;;;4938202;29;20035;-68
2021/08/01 08:49:11;;;;;;;10.60;5.45;;;;;;;;;;4945914;29;20032;-66
2021/08/01 08:51:40;;;;;;;8.65;5.70;;;;;;;;;;4944753;29;20040;-66
2021/08/01 08:54:11;;;;;;;9.68;5.28;;;;;;;;;;4943200;29;20031;-66
2021/08/01 08:56:38;;;;;;;14.38;5.70;;;;;;;;;;4941224;29;20063;-74
2021/08/01 08:59:05;;;;;;;10.93;5.47;;;;;;;;;;4943836;29;20047;-65
2021/08/01 09:01:31;;;;;;;7.63;5.65;;;;;;;;;;4940624;29;20020;-68
2021/08/01 09:03:57;;;;;;;9.52;5.45;;;;;;;;;;4942250;29;20328;-67
2021/08/01 09:06:24;;;;;;;12.70;7.63;;;;;;;;;;4937786;29;20027;-67
2021/08/01 09:08:50;;;;;;;12.48;5.85;;;;;;;;;;4941760;29;20044;-67
2021/08/01 09:11:16;;;;;;;13.88;5.95;;;;;;;;;;4944440;29;20027;-67
2021/08/01 09:13:45;;;;;;;8.55;5.38;;;;;;;;;;4944496;29;20110;-71
2021/08/01 09:16:11;;;;;;;10.38;6.07;;;;;;;;;;4943982;29;20027;-71
2021/08/01 09:18:38;;;;;;;10.88;5.57;;;;;;;;;;4944733;29;20414;-68
2021/08/01 09:21:04;;;;;;;11.40;6.18;;;;;;;;;;4935552;29;20513;-70
2021/08/01 09:23:30;;;;;;;11.95;5.40;;;;;;;;;;4939371;29;20036;-68
2021/08/01 09:25:57;;;;;;;13.60;5.68;;;;;;;;;;4937169;29;20085;-70
2021/08/01 09:28:24;;;;;;;7.30;5.35;;;;;;;;;;4936469;29;20042;-67
2021/08/01 09:30:54;;;;;;;9.77;5.38;;;;;;;;;;4936241;29;20450;-70
2021/08/01 09:33:30;;;;;;;11.13;5.25;;;;;;;;;;4938627;29;20028;-71
2021/08/01 09:36:11;;;;;;;13.43;5.32;;;;;;;;;;4936818;29;20031;-69
2021/08/01 09:38:43;;;;;;;13.25;5.65;;;;;;;;;;4948754;29;20031;-71
2021/08/01 09:41:10;;;;;;;10.85;5.80;;;;;;;;;;4947204;29;20391;-68
2021/08/01 09:43:44;;;;;;;10.55;6.03;;;;;;;;;;4940457;29;20020;-68
2021/08/01 09:46:10;;;;;;;10.70;5.78;;;;;;;;;;4948616;29;20094;-68
2021/08/01 09:48:36;;;;;;;10.68;6.30;;;;;;;;;;4936556;29;20043;-69
2021/08/01 09:51:03;;;;;;;11.02;5.60;;;;;;;;;;4938032;29;20051;-68
2021/08/01 09:53:30;;;;;;;10.02;5.70;;;;;;;;;;4946236;29;20031;-67
2021/08/01 09:56:15;;;;;;;8.85;5.65;;;;;;;;;;4939982;29;20047;-69
2021/08/01 09:58:42;;;;;;;8.50;5.40;;;;;;;;;;4935642;29;20032;-67
2021/08/01 10:01:08;;;;;;;12.98;5.90;;;;;;;;;;4936572;29;20118;-70
2021/08/01 10:03:44;;;;;;;11.40;5.93;;;;;;;;;;4935504;28;20079;-68
2021/08/01 10:06:14;;;;;;;15.23;6.53;;;;;;;;;;4943303;29;20327;-70
2021/08/01 10:09:06;;;;;;;12.75;5.97;;;;;;;;;;4936605;29;20434;-67
2021/08/01 10:11:32;;;;;;;13.50;6.10;;;;;;;;;;4933615;29;20127;-71
2021/08/01 10:13:58;;;;;;;13.02;5.80;;;;;;;;;;4947461;29;20050;-70
2021/08/01 10:16:24;;;;;;;13.60;5.97;;;;;;;;;;4938345;29;20031;-68
2021/08/01 10:18:51;;;;;;;12.63;6.03;;;;;;;;;;4939667;29;20027;-68
2021/08/01 10:21:23;;;;;;;11.90;5.85;;;;;;;;;;4937681;29;20055;-71
2021/08/01 10:23:57;;;;;;;11.38;5.90;;;;;;;;;;4948404;29;20045;-65
2021/08/01 10:26:31;;;;;;;11.05;5.78;;;;;;;;;;4942673;29;20090;-65
2021/08/01 10:28:58;;;;;;;9.63;5.78;;;;;;;;;;4939930;29;20099;-67
2021/08/01 10:31:28;;;;;;;10.93;5.65;;;;;;;;;;4937173;29;20047;-67
2021/08/01 10:34:09;;;;;;;14.10;6.45;;;;;;;;;;4936254;29;20390;-65
2021/08/01 10:36:36;;;;;;;13.32;5.90;;;;;;;;;;4942057;29;20072;-71
2021/08/01 10:39:05;;;;;;;10.63;5.90;;;;;;;;;;4935304;29;20106;-64
2021/08/01 10:41:34;;;;;;;14.40;6.10;;;;;;;;;;4948031;29;20494;-65
2021/08/01 10:44:06;;;;;;;12.05;6.15;;;;;;;;;;4939385;29;20089;-64
2021/08/01 10:46:34;;;;;;;10.70;6.90;;;;;;;;;;4940306;29;20024;-73
2021/08/01 10:49:01;;;;;;;12.80;5.93;;;;;;;;;;4935505;29;20054;-70
2021/08/01 10:51:28;;;;;;;17.67;7.88;;;;;;;;;;4939978;29;20059;-74
2021/08/01 10:54:14;;;;;;;13.02;6.53;;;;;;;;;;4937205;29;20360;-70
2021/08/01 10:56:40;;;;;;;15.85;6.38;;;;;;;;;;4940004;29;20030;-68
2021/08/01 10:59:06;;;;;;;16.50;6.95;;;;;;;;;;4948495;29;20069;-63
2021/08/01 11:01:52;;;;;;;10.90;5.78;;;;;;;;;;4936667;29;20020;-64
2021/08/01 11:04:31;;;;;;;8.20;5.47;;;;;;;;;;4943150;29;20035;-67
2021/08/01 11:06:57;;;;;;;12.57;5.35;;;;;;;;;;4940967;29;20039;-67
2021/08/01 11:09:23;;;;;;;15.73;6.18;;;;;;;;;;4935436;29;20457;-69
2021/08/01 11:12:08;;;;;;;16.13;6.32;;;;;;;;;;4934425;29;20110;-66
2021/08/01 11:14:50;;;;;;;13.65;6.22;;;;;;;;;;4943766;29;20075;-69
2021/08/01 11:17:17;;;;;;;15.27;6.30;;;;;;;;;;4936811;29;20035;-74
2021/08/01 11:19:43;;;;;;;12.93;6.30;;;;;;;;;;4941256;29;20137;-70
2021/08/01 11:22:29;;;;;;;12.65;6.07;;;;;;;;;;4940660;28;20482;-71
2021/08/01 11:25:14;;;;;;;13.27;6.05;;;;;;;;;;4929964;29;20043;-69
2021/08/01 11:27:40;;;;;;;15.50;6.07;;;;;;;;;;4942831;28;20031;-67
2021/08/01 11:30:07;;;;;;;16.50;5.97;;;;;;;;;;4939690;29;20541;-72
2021/08/01 11:32:51;;;;;;;16.95;5.90;;;;;;;;;;4943102;29;20448;-67
2021/08/01 11:35:18;;;;;;;13.40;5.80;;;;;;;;;;4936922;29;20031;-64
2021/08/01 11:37:44;;;;;;;13.55;5.80;;;;;;;;;;4941630;29;20026;-64
2021/08/01 11:40:12;;;;;;;15.85;6.13;;;;;;;;;;4937780;29;20029;-63
2021/08/01 11:42:39;;;;;;;11.73;6.05;;;;;;;;;;4947703;29;20023;-69
2021/08/01 11:45:13;;;;;;;13.25;6.00;;;;;;;;;;4946877;28;20505;-71
2021/08/01 11:47:43;;;;;;;12.80;5.75;;;;;;;;;;4947487;29;20035;-68
2021/08/01 11:50:10;;;;;;;12.32;6.35;;;;;;;;;;4943476;29;20442;-66
2021/08/01 11:52:43;;;;;;;13.25;6.00;;;;;;;;;;4951018;29;20043;-66
2021/08/01 11:55:11;;;;;;;12.82;6.07;;;;;;;;;;4940187;29;20121;-64
2021/08/01 11:57:37;;;;;;;10.85;6.00;;;;;;;;;;4944766;29;20028;-64
2021/08/01 12:00:04;;;;;;;14.18;5.90;;;;;;;;;;4947551;29;20027;-63
2021/08/01 12:02:30;;;;;;;14.18;6.03;;;;;;;;;;4948242;29;20031;-64
2021/08/01 12:04:59;;;;;;;12.43;6.43;;;;;;;;;;4943254;29;20027;-64
2021/08/01 12:07:44;;;;;;;11.45;5.10;;;;;;;;;;4944617;29;20070;-65
2021/08/01 12:10:26;;;;;;;15.52;6.22;;;;;;;;;;4944141;29;20047;-65
2021/08/01 12:12:59;;;;;;;12.13;5.85;;;;;;;;;;4945403;29;20035;-63
2021/08/01 12:15:27;;;;;;;14.90;6.35;;;;;;;;;;4938985;29;20054;-66
2021/08/01 12:17:53;;;;;;;11.45;5.50;;;;;;;;;;4940838;29;20031;-63
2021/08/01 12:20:30;;;;;;;13.20;5.93;;;;;;;;;;4926647;29;20429;-66
2021/08/01 12:22:56;;;;;;;14.52;5.90;;;;;;;;;;4939891;29;20035;-62
2021/08/01 12:25:22;;;;;;;11.65;5.72;;;;;;;;;;4939676;29;20027;-63
2021/08/01 12:27:48;;;;;;;16.58;5.70;;;;;;;;;;4942326;29;20106;-67
2021/08/01 12:30:19;;;;;;;13.48;5.70;;;;;;;;;;4941287;29;20091;-65
2021/08/01 12:32:46;;;;;;;12.77;5.88;;;;;;;;;;4950396;29;20034;-66
2021/08/01 12:35:17;;;;;;;16.92;5.82;;;;;;;;;;4944851;29;20031;-63
2021/08/01 12:37:48;;;;;;;17.55;6.32;;;;;;;;;;4950601;29;20033;-66
2021/08/01 12:40:16;;;;;;;18.73;6.18;;;;;;;;;;4937375;29;20043;-63
2021/08/01 12:42:52;;;;;;;14.43;6.25;;;;;;;;;;4936345;29;20090;-65
2021/08/01 12:45:18;;;;;;;15.20;5.65;;;;;;;;;;4942418;29;20031;-63
2021/08/01 12:47:44;;;;;;;25.17;6.18;;;;;;;;;;4945536;29;20464;-64
2021/08/01 12:50:11;;;;;;;16.20;6.07;;;;;;;;;;4942094;29;20387;-63
2021/08/01 12:52:37;;;;;;;11.27;5.85;;;;;;;;;;4942511;29;20032;-63
2021/08/01 12:55:08;;;;;;;15.30;5.85;;;;;;;;;;4941980;29;20506;-65
2021/08/01 12:57:34;;;;;;;13.68;5.93;;;;;;;;;;4944582;29;20493;-62
2021/08/01 13:00:06;;;;;;;14.10;6.03;;;;;;;;;;4937469;29;20040;-63
2021/08/01 13:02:33;;;;;;;16.38;5.93;;;;;;;;;;4937811;29;20111;-62
2021/08/01 13:04:59;;;;;;;15.68;6.13;;;;;;;;;;4937153;29;20371;-64
2021/08/01 13:07:25;;;;;;;12.55;5.65;;;;;;;;;;4947942;29;20039;-62
2021/08/01 13:10:04;;;;;;;11.82;5.85;;;;;;;;;;4949933;29;20394;-68
2021/08/01 13:12:30;;;;;;;15.13;5.93;;;;;;;;;;4939579;29;20041;-65
2021/08/01 13:14:56;;;;;;;15.48;5.90;;;;;;;;;;4942417;29;20023;-62
2021/08/01 13:17:41;;;;;;;30.13;6.70;;;;;;;;;;4940736;29;20070;-62
2021/08/01 13:20:08;;;;;;;15.65;6.13;;;;;;;;;;4937874;29;20036;-63
2021/08/01 13:22:34;;;;;;;15.02;5.75;;;;;;;;;;4944239;29;20557;-62
2021/08/01 13:25:01;;;;;;;13.52;5.85;;;;;;;;;;4939051;29;20074;-70
2021/08/01 13:27:29;;;;;;;21.33;6.10;;;;;;;;;;4942637;29;20031;-63
2021/08/01 13:30:11;;;;;;;14.85;5.88;;;;;;;;;;4942080;29;20024;-66
2021/08/01 13:32:41;;;;;;;13.45;5.60;;;;;;;;;;4939286;29;20473;-67
2021/08/01 13:35:16;;;;;;;16.30;5.75;;;;;;;;;;4942224;29;20038;-69
2021/08/01 13:37:43;;;;;;;11.90;5.85;;;;;;;;;;4939457;29;20091;-66
2021/08/01 13:40:09;;;;;;;15.52;6.25;;;;;;;;;;4940019;29;20098;-67
2021/08/01 13:42:40;;;;;;;16.60;5.70;;;;;;;;;;4944430;29;20110;-69
2021/08/01 13:45:08;;;;;;;13.13;5.93;;;;;;;;;;4941283;29;20035;-69
2021/08/01 13:47:34;;;;;;;13.63;6.47;;;;;;;;;;4936222;29;20110;-70
2021/08/01 13:50:02;;;;;;;21.20;6.72;;;;;;;;;;4936210;29;20044;-64
2021/08/01 13:52:32;;;;;;;24.33;7.35;;;;;;;;;;4937409;29;20155;-66
2021/08/01 13:54:58;;;;;;;20.40;6.38;;;;;;;;;;4947438;29;20030;-64
2021/08/01 13:57:25;;;;;;;24.13;6.53;;;;;;;;;;4937631;29;20031;-66
2021/08/01 13:59:54;;;;;;;28.27;6.60;;;;;;;;;;4944893;29;20393;-63
2021/08/01 14:02:24;;;;;;;27.08;6.20;;;;;;;;;;4949047;29;20027;-63
2021/08/01 14:04:50;;;;;;;23.45;6.22;;;;;;;;;;4947523;29;20044;-63
2021/08/01 14:07:17;;;;;;;22.60;6.22;;;;;;;;;;4944824;28;20035;-65
2021/08/01 14:09:43;;;;;;;20.73;6.38;;;;;;;;;;4939857;29;20367;-69
2021/08/01 14:12:09;;;;;;;28.92;6.72;;;;;;;;;;4942346;29;20106;-66
2021/08/01 14:14:36;;;;;;;21.15;6.60;;;;;;;;;;4937337;29;20036;-61
2021/08/01 14:17:03;;;;;;;17.58;6.18;;;;;;;;;;4940847;29;20505;-62
2021/08/01 14:19:29;;;;;;;18.92;6.03;;;;;;;;;;4939435;29;20035;-64
2021/08/01 14:21:55;;;;;;;19.00;6.43;;;;;;;;;;4920079;29;20118;-66
2021/08/01 14:24:22;;;;;;;15.68;5.88;;;;;;;;;;4943282;29;20046;-66
2021/08/01 14:26:48;;;;;;;17.55;5.88;;;;;;;;;;4943434;29;20031;-69
2021/08/01 14:29:15;;;;;;;20.70;6.03;;;;;;;;;;4939723;29;20087;-68
2021/08/01 14:31:45;;;;;;;20.27;6.03;;;;;;;;;;4937741;29;20028;-68
2021/08/01 14:34:12;;;;;;;14.43;5.80;;;;;;;;;;4941432;29;20027;-68
2021/08/01 14:36:39;;;;;;;17.60;6.10;;;;;;;;;;4940823;29;20027;-65
2021/08/01 14:39:10;;;;;;;19.05;5.88;;;;;;;;;;4941190;29;20149;-65
2021/08/01 14:41:36;;;;;;;22.90;5.90;;;;;;;;;;4935447;29;20095;-65